Time;durP1;ratioP1;P1;durP2;ratioP2;P2;SDS_P1;SDS_P2;PMS_P1;PMS_P2;Temp;Humidity;BMP_temperature;BMP_pressure;BME280_temperature;BME280_humidity;BME280_pressure;Samples;Min_cycle;Max_cycle;Signal;HPM_P1;HPM_P2
2022/03/14 00:00:00;;;;;;;;;2.00;1.00;;;;;20.90;39.60;101488.44;5058407;28;51016;-54
2022/03/14 00:02:25;;;;;;;;;3.50;2.50;;;;;20.90;39.89;101488.44;5062861;28;51254;-54
2022/03/14 00:04:51;;;;;;;;;1.50;1.50;;;;;20.89;39.85;101492.25;5066066;28;51129;-55
2022/03/14 00:07:18;;;;;;;;;3.00;3.00;;;;;20.88;39.42;101490.56;5062197;27;51103;-54
2022/03/14 00:09:43;;;;;;;;;2.25;2.00;;;;;20.87;39.41;101497.97;5061447;28;51307;-55
2022/03/14 00:12:13;;;;;;;;;2.00;2.00;;;;;20.87;39.41;101495.22;5068161;28;51016;-54
2022/03/14 00:14:38;;;;;;;;;2.00;2.00;;;;;20.87;39.68;101502.63;5063988;27;52978;-54
2022/03/14 00:17:10;;;;;;;;;1.00;1.00;;;;;20.86;39.61;101515.56;5062540;28;51120;-55
2022/03/14 00:19:35;;;;;;;;;1.00;1.00;;;;;20.85;39.79;101513.88;5067941;27;51018;-55
2022/03/14 00:22:01;;;;;;;;;1.50;1.50;;;;;20.83;39.77;101518.69;5058783;28;50974;-54
2022/03/14 00:24:26;;;;;;;;;2.00;2.00;;;;;20.84;39.70;101530.56;5057616;28;52029;-55
2022/03/14 00:26:54;;;;;;;;;3.75;2.00;;;;;20.84;39.37;101536.06;5062429;27;51140;-55
2022/03/14 00:29:20;;;;;;;;;2.00;2.00;;;;;20.82;39.27;101536.28;5071080;27;51228;-54
2022/03/14 00:31:46;;;;;;;;;1.00;1.00;;;;;20.82;39.40;101550.06;5066456;27;51134;-53
2022/03/14 00:34:14;;;;;;;;;2.00;1.50;;;;;20.82;39.74;101557.47;5080067;27;53352;-55
2022/03/14 00:36:42;;;;;;;;;1.50;1.00;;;;;20.81;39.66;101558.53;5061034;27;51316;-55
2022/03/14 00:39:08;;;;;;;;;2.00;2.00;;;;;20.82;39.57;101554.72;5064166;28;51161;-54
2022/03/14 00:41:34;;;;;;;;;2.25;2.25;;;;;20.80;39.75;101565.09;5061815;27;51259;-55
2022/03/14 00:43:59;;;;;;;;;1.00;1.00;;;;;20.81;39.70;101566.78;5062009;28;51728;-54
2022/03/14 00:46:24;;;;;;;;;2.25;2.00;;;;;20.80;39.74;101576.09;5065700;27;51180;-54
2022/03/14 00:48:49;;;;;;;;;1.25;1.25;;;;;20.80;39.66;101576.09;5063727;28;51034;-51
2022/03/14 00:51:15;;;;;;;;;2.00;2.00;;;;;20.80;39.64;101584.38;5060977;28;51381;-55
2022/03/14 00:53:41;;;;;;;;;1.25;1.25;;;;;20.79;39.40;101582.66;5058737;28;51632;-54
2022/03/14 00:56:06;;;;;;;;;2.00;2.00;;;;;20.78;39.55;101592.84;5059960;28;51408;-54
2022/03/14 00:58:33;;;;;;;;;2.25;2.00;;;;;20.78;39.36;101605.75;5065417;28;51342;-53
2022/03/14 01:00:59;;;;;;;;;3.00;3.00;;;;;20.77;39.46;101602.16;5060554;27;51493;-52
2022/03/14 01:03:24;;;;;;;;;2.25;2.00;;;;;20.77;39.57;101606.81;5056392;28;51926;-52
2022/03/14 01:05:49;;;;;;;;;1.75;1.75;;;;;20.75;39.72;101613.38;5069392;28;51106;-51
2022/03/14 01:08:15;;;;;;;;;1.00;1.00;;;;;20.76;39.53;101619.75;5066421;28;51237;-51
2022/03/14 01:10:40;;;;;;;;;1.75;1.00;;;;;20.75;39.44;101615.28;5068264;27;51382;-49
2022/03/14 01:13:06;;;;;;;;;1.00;1.00;;;;;20.74;39.58;101621.84;5060470;27;51920;-53
2022/03/14 01:15:32;;;;;;;;;1.25;1.25;;;;;20.74;39.30;101628.22;5070226;28;51171;-48
2022/03/14 01:17:59;;;;;;;;;3.00;2.00;;;;;20.73;39.31;101628.38;5072513;27;51101;-51
2022/03/14 01:20:25;;;;;;;;;1.00;1.00;;;;;20.72;39.09;101632.19;5065556;27;51115;-51
2022/03/14 01:22:54;;;;;;;;;1.00;1.00;;;;;20.71;39.63;101639.59;5069570;27;51657;-52
2022/03/14 01:25:20;;;;;;;;;3.50;2.25;;;;;20.70;39.01;101651.69;5061580;28;51417;-50
2022/03/14 01:27:45;;;;;;;;;2.00;1.75;;;;;20.70;39.53;101653.59;5063958;28;51011;-51
2022/03/14 01:30:11;;;;;;;;;1.00;1.00;;;;;20.68;39.39;101648.28;5073501;27;51151;-49
2022/03/14 01:32:36;;;;;;;;;2.75;1.50;;;;;20.68;39.03;101658.44;5068148;28;51929;-51
2022/03/14 01:35:02;;;;;;;;;1.75;1.75;;;;;20.66;39.21;101655.06;5063818;28;51115;-52
2022/03/14 01:37:31;;;;;;;;;1.00;1.00;;;;;20.66;39.28;101666.91;5072342;28;51063;-52
2022/03/14 01:39:56;;;;;;;;;1.00;1.00;;;;;20.64;38.90;101666.28;5064114;28;51090;-52
2022/03/14 01:42:21;;;;;;;;;2.50;1.00;;;;;20.63;39.20;101672.81;5066798;28;51754;-49
2022/03/14 01:44:47;;;;;;;;;1.00;1.00;;;;;20.63;39.39;101678.31;5070746;28;51123;-52
2022/03/14 01:47:14;;;;;;;;;0.75;0.75;;;;;20.62;39.03;101673.00;5066909;28;50929;-53
2022/03/14 01:49:41;;;;;;;;;0.50;0.25;;;;;20.61;39.37;101672.16;5067030;27;51081;-51
2022/03/14 01:52:08;;;;;;;;;1.25;1.25;;;;;20.60;39.07;101667.72;5071736;27;51147;-51
2022/03/14 01:54:34;;;;;;;;;2.00;1.00;;;;;20.58;39.13;101674.50;5063103;28;51167;-49
2022/03/14 01:56:59;;;;;;;;;0.00;0.00;;;;;20.59;38.89;101681.69;5069825;28;51176;-51
2022/03/14 01:59:26;;;;;;;;;1.75;1.75;;;;;20.57;39.17;101681.91;5070429;28;51016;-51
2022/03/14 02:01:51;;;;;;;;;2.75;1.25;;;;;20.57;38.81;101692.91;5068374;28;52651;-48
2022/03/14 02:04:18;;;;;;;;;2.75;1.00;;;;;20.56;39.15;101684.84;5068794;27;51178;-51
2022/03/14 02:06:46;;;;;;;;;0.25;0.25;;;;;20.55;38.92;101684.00;5076093;27;51120;-50
2022/03/14 02:09:12;;;;;;;;;1.00;1.00;;;;;20.55;38.80;101684.00;5070299;28;51325;-49
2022/03/14 02:11:37;;;;;;;;;1.50;1.00;;;;;20.53;39.23;101688.88;5074189;28;51870;-50
2022/03/14 02:14:04;;;;;;;;;0.00;0.00;;;;;20.53;39.27;101685.25;5074339;27;51140;-51
2022/03/14 02:16:30;;;;;;;;;1.25;0.00;;;;;20.52;38.89;101683.53;5068567;27;51281;-49
2022/03/14 02:18:56;;;;;;;;;2.00;0.00;;;;;20.51;38.97;101679.94;5070466;28;51321;-50
2022/03/14 02:21:21;;;;;;;;;1.75;1.00;;;;;20.50;38.98;101680.16;5062577;28;51781;-49
2022/03/14 02:23:46;;;;;;;;;0.25;0.25;;;;;20.50;38.73;101691.16;5070242;27;50970;-49
2022/03/14 02:26:11;;;;;;;;;0.75;0.75;;;;;20.49;38.80;101692.22;5067446;27;51174;-50
2022/03/14 02:28:37;;;;;;;;;1.00;1.00;;;;;20.48;39.13;101694.13;5071806;27;51435;-51
2022/03/14 02:31:06;;;;;;;;;0.00;0.00;;;;;20.48;39.23;101696.88;5073916;27;51695;-50
2022/03/14 02:33:32;;;;;;;;;1.00;1.00;;;;;20.47;39.19;101692.41;5077218;28;51096;-51
2022/03/14 02:35:58;;;;;;;;;1.00;1.00;;;;;20.46;38.79;101693.47;5067489;28;51188;-49
2022/03/14 02:38:24;;;;;;;;;0.00;0.00;;;;;20.45;38.97;101689.03;5073388;28;51079;-51
2022/03/14 02:40:49;;;;;;;;;0.00;0.00;;;;;20.44;38.99;101692.84;5071297;28;51737;-51
2022/03/14 02:43:20;;;;;;;;;1.00;1.00;;;;;20.44;38.84;101698.34;5079792;27;50979;-50
2022/03/14 02:45:47;;;;;;;;;1.00;1.00;;;;;20.43;38.88;101702.16;5072596;28;51183;-52
2022/03/14 02:48:13;;;;;;;;;2.00;1.00;;;;;20.42;39.18;101716.91;5080272;28;51085;-51
2022/03/14 02:50:42;;;;;;;;;2.00;0.75;;;;;20.42;39.26;101716.91;5066131;27;51758;-51
2022/03/14 02:53:13;;;;;;;;;1.00;0.00;;;;;20.41;38.79;101728.97;5078886;28;51221;-49
2022/03/14 02:55:39;;;;;;;;;0.00;0.00;;;;;20.40;39.23;101736.38;5071212;27;50927;-49
2022/03/14 02:58:06;;;;;;;;;1.00;0.75;;;;;20.39;39.02;101733.81;5068946;28;50966;-53
2022/03/14 03:00:31;;;;;;;;;2.00;1.00;;;;;20.38;38.97;101737.63;5066869;27;51095;-50
2022/03/14 03:02:57;;;;;;;;;2.00;0.75;;;;;20.37;38.72;101742.28;5076193;27;51279;-50
2022/03/14 03:05:22;;;;;;;;;0.00;0.00;;;;;20.38;38.92;101748.63;5068924;28;51085;-48
2022/03/14 03:07:48;;;;;;;;;1.00;1.00;;;;;20.37;38.74;101752.44;5061037;27;50952;-52
2022/03/14 03:10:16;;;;;;;;;0.75;0.50;;;;;20.36;39.35;101754.34;5068998;27;52748;-47
2022/03/14 03:12:42;;;;;;;;;1.25;1.00;;;;;20.36;38.98;101768.09;5070393;27;51115;-48
2022/03/14 03:15:08;;;;;;;;;3.75;1.00;;;;;20.36;39.26;101772.75;5068328;27;51054;-49
2022/03/14 03:17:34;;;;;;;;;2.00;0.25;;;;;20.35;39.42;101785.66;5069823;28;50969;-47
2022/03/14 03:19:59;;;;;;;;;0.25;0.00;;;;;20.33;38.97;101790.50;5066680;28;51067;-51
2022/03/14 03:22:27;;;;;;;;;2.00;1.00;;;;;20.35;38.90;101798.56;5070863;28;51094;-47
2022/03/14 03:24:53;;;;;;;;;2.25;0.00;;;;;20.34;39.08;101808.72;5067745;28;51156;-50
2022/03/14 03:27:19;;;;;;;;;1.00;0.00;;;;;20.33;39.12;101817.19;5072030;27;50938;-48
2022/03/14 03:29:44;;;;;;;;;1.50;1.00;;;;;20.32;39.12;101810.84;5075618;27;52403;-51
2022/03/14 03:32:10;;;;;;;;;1.00;1.00;;;;;20.32;39.08;101815.44;5073777;27;51142;-46
2022/03/14 03:34:35;;;;;;;;;0.50;0.00;;;;;20.31;38.98;101814.59;5068773;28;51196;-52
2022/03/14 03:37:01;;;;;;;;;0.25;0.25;;;;;20.30;38.98;101818.41;5072872;27;51130;-48
2022/03/14 03:39:26;;;;;;;;;2.50;1.75;;;;;20.30;39.03;101814.81;5066588;27;51204;-48
2022/03/14 03:41:51;;;;;;;;;0.75;0.75;;;;;20.30;39.08;101820.31;5067065;28;51277;-51
2022/03/14 03:44:16;;;;;;;;;0.50;0.50;;;;;20.29;39.18;101826.88;5069421;27;51171;-50
2022/03/14 03:46:42;;;;;;;;;1.00;1.00;;;;;20.29;39.01;101837.88;5061563;28;51098;-53
2022/03/14 03:49:07;;;;;;;;;0.50;0.50;;;;;20.27;38.75;101842.72;5065589;28;51025;-47
2022/03/14 03:51:32;;;;;;;;;1.00;1.00;;;;;20.27;39.19;101842.72;5064998;28;51167;-52
2022/03/14 03:53:58;;;;;;;;;0.75;0.75;;;;;20.26;39.38;101839.13;5073604;27;51240;-52
2022/03/14 03:56:23;;;;;;;;;1.00;1.00;;;;;20.26;39.16;101844.63;5065226;28;51032;-50
2022/03/14 03:58:49;;;;;;;;;0.00;0.00;;;;;20.25;38.95;101842.06;5065279;28;51021;-51
2022/03/14 04:01:19;;;;;;;;;1.25;1.00;;;;;20.24;38.89;101843.97;5062584;28;51124;-52
2022/03/14 04:03:54;;;;;;;;;1.00;1.00;;;;;20.24;38.95;101854.97;5066368;28;51142;-50
2022/03/14 04:06:25;;;;;;;;;1.00;1.00;;;;;20.24;39.02;101868.75;5070530;28;51292;-50
2022/03/14 04:08:52;;;;;;;;;0.00;0.00;;;;;20.24;38.86;101873.38;5066982;28;52879;-50
2022/03/14 04:11:18;;;;;;;;;1.00;1.00;;;;;20.22;39.04;101881.84;5072190;27;51002;-52
2022/03/14 04:13:44;;;;;;;;;0.25;0.25;;;;;20.21;39.21;101879.25;5065145;28;51574;-51
2022/03/14 04:16:09;;;;;;;;;0.00;0.00;;;;;20.22;39.23;101880.97;5069212;28;51087;-48
2022/03/14 04:18:35;;;;;;;;;0.50;0.50;;;;;20.20;38.99;101883.91;5064920;28;51105;-50
2022/03/14 04:21:00;;;;;;;;;0.25;0.25;;;;;20.19;39.01;101882.22;5061267;28;51139;-52
2022/03/14 04:23:26;;;;;;;;;1.00;1.00;;;;;20.19;38.93;101888.56;5057574;28;51249;-50
2022/03/14 04:25:52;;;;;;;;;1.00;1.00;;;;;20.18;39.30;101886.00;5071409;28;51002;-52
2022/03/14 04:28:17;;;;;;;;;0.25;0.00;;;;;20.17;39.07;101889.81;5066982;28;51706;-48
2022/03/14 04:30:43;;;;;;;;;0.25;0.25;;;;;20.17;38.91;101885.16;5067605;27;51175;-48
2022/03/14 04:33:08;;;;;;;;;0.75;0.00;;;;;20.16;39.09;101891.72;5065631;28;51260;-51
2022/03/14 04:35:35;;;;;;;;;1.00;1.00;;;;;20.16;39.12;101899.97;5066957;28;51240;-50
2022/03/14 04:38:02;;;;;;;;;4.00;0.00;;;;;20.15;38.94;101906.53;5067290;28;51935;-50
2022/03/14 04:40:27;;;;;;;;;0.75;0.00;;;;;20.16;39.00;101916.47;5071235;28;51395;-48
2022/03/14 04:42:53;;;;;;;;;0.25;0.00;;;;;20.14;39.15;101918.56;5064312;28;51213;-48
2022/03/14 04:45:18;;;;;;;;;1.00;1.00;;;;;20.14;38.84;101918.56;5065114;28;51003;-49
2022/03/14 04:47:44;;;;;;;;;0.00;0.00;;;;;20.13;39.10;101922.38;5071833;28;51141;-49
2022/03/14 04:50:09;;;;;;;;;0.25;0.25;;;;;20.12;38.97;101937.19;5062808;27;51335;-49
2022/03/14 04:52:35;;;;;;;;;1.25;1.25;;;;;20.12;39.08;101933.56;5064984;28;51117;-51
2022/03/14 04:55:00;;;;;;;;;2.50;1.00;;;;;20.12;38.79;101922.56;5070223;28;51006;-50
2022/03/14 04:57:26;;;;;;;;;0.75;0.75;;;;;20.11;39.21;101935.47;5074224;28;51746;-49
2022/03/14 04:59:51;;;;;;;;;0.00;0.00;;;;;20.11;38.78;101935.47;5066098;27;51133;-49
2022/03/14 05:02:22;;;;;;;;;1.00;1.00;;;;;20.10;38.90;101947.50;5069797;27;51443;-50
2022/03/14 05:04:48;;;;;;;;;0.50;0.50;;;;;20.10;39.13;101944.75;5062126;27;51061;-50
2022/03/14 05:07:14;;;;;;;;;2.00;1.00;;;;;20.09;39.04;101948.53;5060731;28;51989;-49
2022/03/14 05:09:39;;;;;;;;;0.75;0.75;;;;;20.09;38.69;101950.44;5064810;28;51375;-53
2022/03/14 05:12:05;;;;;;;;;1.00;1.00;;;;;20.08;38.54;101957.00;5071133;28;51297;-49
2022/03/14 05:14:30;;;;;;;;;1.00;1.00;;;;;20.07;39.06;101952.53;5066301;28;51096;-53
2022/03/14 05:16:56;;;;;;;;;1.00;1.00;;;;;20.07;38.56;101956.16;5069233;28;51797;-47
2022/03/14 05:19:21;;;;;;;;;1.00;1.00;;;;;20.06;38.78;101964.59;5064219;28;51138;-50
2022/03/14 05:21:47;;;;;;;;;1.75;1.00;;;;;20.06;38.90;101976.44;5066310;28;51081;-50
2022/03/14 05:24:12;;;;;;;;;1.25;1.00;;;;;20.05;38.99;101974.75;5061943;28;51119;-51
2022/03/14 05:26:37;;;;;;;;;1.00;0.00;;;;;20.04;38.76;101973.03;5063211;28;51984;-49
2022/03/14 05:29:04;;;;;;;;;0.75;0.75;;;;;20.03;38.77;101973.25;5072639;27;52573;-50
2022/03/14 05:31:30;;;;;;;;;1.50;1.00;;;;;20.04;38.78;101974.94;5061309;27;51065;-50
2022/03/14 05:33:55;;;;;;;;;1.00;0.50;;;;;20.03;38.97;101979.59;5065254;28;51416;-50
2022/03/14 05:36:21;;;;;;;;;0.75;0.75;;;;;20.03;38.64;101981.50;5066938;27;51114;-50
2022/03/14 05:38:46;;;;;;;;;1.00;1.00;;;;;20.02;38.93;101985.28;5067667;27;51037;-51
2022/03/14 05:41:11;;;;;;;;;1.50;1.50;;;;;20.02;38.62;101982.53;5058653;28;51649;-49
2022/03/14 05:43:37;;;;;;;;;1.75;1.75;;;;;20.01;38.85;101976.19;5071982;28;51202;-50
2022/03/14 05:46:07;;;;;;;;;2.25;0.00;;;;;20.01;38.81;101984.44;5063496;28;51778;-52
2022/03/14 05:48:35;;;;;;;;;1.25;1.25;;;;;20.00;38.85;101996.47;5064039;28;51273;-48
2022/03/14 05:51:03;;;;;;;;;2.50;1.00;;;;;20.00;38.82;102001.09;5061230;28;51243;-46
2022/03/14 05:53:30;;;;;;;;;1.25;1.00;;;;;19.99;38.64;101993.91;5066899;28;51211;-45
2022/03/14 05:55:56;;;;;;;;;1.75;1.00;;;;;19.98;38.76;102001.31;5064949;27;52099;-50
2022/03/14 05:58:21;;;;;;;;;3.50;1.25;;;;;19.97;38.44;102010.59;5070061;28;50965;-50
2022/03/14 06:00:48;;;;;;;;;1.50;0.25;;;;;19.96;38.99;102008.91;5057225;28;51259;-49
2022/03/14 06:03:14;;;;;;;;;1.00;1.00;;;;;19.97;38.70;102015.25;5056980;28;51133;-52
2022/03/14 06:05:40;;;;;;;;;2.00;1.00;;;;;19.96;38.95;102010.78;5066079;27;52669;-51
2022/03/14 06:08:05;;;;;;;;;0.75;0.75;;;;;19.96;38.56;102019.91;5063237;27;51096;-49
2022/03/14 06:10:32;;;;;;;;;1.00;1.00;;;;;19.96;38.68;102025.41;5064167;28;50919;-48
2022/03/14 06:12:58;;;;;;;;;1.00;1.00;;;;;19.96;38.52;102036.41;5069899;27;51033;-50
2022/03/14 06:15:23;;;;;;;;;4.00;1.75;;;;;19.95;38.82;102031.09;5058392;27;51301;-49
2022/03/14 06:17:49;;;;;;;;;4.00;3.00;;;;;19.95;38.26;102040.19;5064598;28;51129;-49
2022/03/14 06:20:15;;;;;;;;;3.00;2.25;;;;;19.93;38.17;102038.69;5067943;27;51147;-52
2022/03/14 06:22:42;;;;;;;;;2.50;2.25;;;;;19.91;37.92;102041.63;5063191;27;51197;-50
2022/03/14 06:25:08;;;;;;;;;7.00;5.00;;;;;19.87;37.69;102043.88;5063221;27;51891;-49
2022/03/14 06:27:34;;;;;;;;;4.00;4.00;;;;;19.85;37.35;102042.38;5068291;28;51143;-49
2022/03/14 06:29:59;;;;;;;;;5.25;4.50;;;;;19.82;37.00;102053.75;5070896;27;51114;-51
2022/03/14 06:32:25;;;;;;;;;3.25;3.00;;;;;19.78;37.00;102064.25;5063993;28;51040;-50
2022/03/14 06:34:50;;;;;;;;;5.25;3.00;;;;;19.75;37.10;102063.78;5063534;27;51203;-49
2022/03/14 06:37:16;;;;;;;;;3.25;3.25;;;;;19.71;37.02;102065.22;5057782;27;51266;-47
2022/03/14 06:39:41;;;;;;;;;6.75;5.00;;;;;19.68;37.00;102073.81;5064584;28;51259;-49
2022/03/14 06:42:09;;;;;;;;;4.00;3.25;;;;;19.62;37.05;102077.34;5069980;28;51076;-49
2022/03/14 06:44:38;;;;;;;;;3.00;3.00;;;;;19.64;37.39;102087.09;5067115;28;51299;-51
2022/03/14 06:47:04;;;;;;;;;3.75;2.00;;;;;19.69;37.94;102094.78;5062608;27;51250;-47
2022/03/14 06:49:30;;;;;;;;;2.00;2.00;;;;;19.76;38.01;102095.75;5064738;28;51110;-46
2022/03/14 06:51:56;;;;;;;;;1.00;1.00;;;;;19.83;38.00;102105.81;5065033;27;51215;-50
2022/03/14 06:54:21;;;;;;;;;3.00;3.00;;;;;19.90;38.05;102108.66;5065132;28;51627;-52
2022/03/14 06:56:47;;;;;;;;;4.00;3.00;;;;;19.97;38.31;102115.13;5068877;28;51104;-51
2022/03/14 06:59:12;;;;;;;;;2.00;2.00;;;;;20.06;38.58;102121.38;5065824;28;50982;-49
2022/03/14 07:01:38;;;;;;;;;3.50;2.00;;;;;20.13;38.74;102122.34;5071548;27;51330;-51
2022/03/14 07:04:03;;;;;;;;;2.00;2.00;;;;;20.20;38.41;102128.78;5059520;28;51587;-51
2022/03/14 07:06:29;;;;;;;;;2.50;0.75;;;;;20.27;38.93;102131.63;5057424;28;51180;-54
2022/03/14 07:08:54;;;;;;;;;2.25;1.75;;;;;20.34;38.75;102133.44;5077122;27;51115;-52
2022/03/14 07:11:19;;;;;;;;;5.25;3.00;;;;;20.40;38.95;102140.06;5059857;27;51315;-50
2022/03/14 07:13:45;;;;;;;;;3.00;1.00;;;;;20.42;39.17;102136.09;5066925;28;51285;-49
2022/03/14 07:16:10;;;;;;;;;1.25;1.25;;;;;20.41;39.43;102150.03;5065720;27;51072;-50
2022/03/14 07:18:36;;;;;;;;;2.00;2.00;;;;;20.39;39.49;102146.63;5069386;28;51219;-51
2022/03/14 07:21:01;;;;;;;;;1.00;1.00;;;;;20.38;39.57;102170.53;5065771;28;51088;-48
2022/03/14 07:23:26;;;;;;;;;3.25;2.75;;;;;20.37;39.62;102174.34;5066320;27;51740;-46
2022/03/14 07:25:52;;;;;;;;;2.75;1.50;;;;;20.37;40.17;102170.72;5061327;28;51448;-50
2022/03/14 07:28:18;;;;;;;;;3.50;2.25;;;;;20.35;39.94;102167.31;5068302;28;51172;-47
2022/03/14 07:30:44;;;;;;;;;2.50;2.50;;;;;20.36;40.00;102167.13;5080286;27;51023;-51
2022/03/14 07:33:09;;;;;;;;;3.75;3.00;;;;;20.39;39.98;102169.50;5064661;27;52757;-54
2022/03/14 07:35:36;;;;;;;;;0.00;0.00;;;;;20.47;40.21;102176.84;5068490;28;52446;-48
2022/03/14 07:38:03;;;;;;;;;1.75;1.75;;;;;20.55;40.12;102184.16;5068783;28;51170;-47
2022/03/14 07:40:29;;;;;;;;;5.00;2.50;;;;;20.61;40.10;102191.63;5064418;27;51168;-51
2022/03/14 07:42:56;;;;;;;;;4.25;3.00;;;;;20.63;40.19;102204.16;5071452;27;51274;-50
2022/03/14 07:45:24;;;;;;;;;2.00;2.00;;;;;20.63;40.64;102209.66;5060101;27;51126;-50
2022/03/14 07:47:49;;;;;;;;;3.75;3.75;;;;;20.62;40.50;102213.47;5063610;27;51263;-47
2022/03/14 07:50:17;;;;;;;;;2.75;2.00;;;;;20.61;41.00;102216.41;5055247;28;51058;-52
2022/03/14 07:52:44;;;;;;;;;6.25;4.00;;;;;20.60;40.51;102226.56;5059546;27;52830;-49
2022/03/14 07:55:10;;;;;;;;;3.00;3.00;;;;;20.59;40.50;102229.50;5065247;28;51321;-48
2022/03/14 07:57:37;;;;;;;;;7.00;4.00;;;;;20.56;40.35;102236.25;5067811;28;51373;-54
2022/03/14 08:00:06;;;;;;;;;6.50;4.00;;;;;20.54;40.87;102249.38;5063430;28;51529;-50
2022/03/14 08:02:31;;;;;;;;;3.00;3.00;;;;;20.52;40.93;102251.44;5058640;28;52709;-50
2022/03/14 08:04:56;;;;;;;;;6.25;3.50;;;;;20.49;40.89;102250.97;5056595;27;51176;-51
2022/03/14 08:07:22;;;;;;;;;7.25;3.25;;;;;20.46;40.63;102246.69;5056849;28;51099;-49
2022/03/14 08:09:50;;;;;;;;;6.75;4.25;;;;;20.42;41.08;102237.94;5068022;28;51230;-51
2022/03/14 08:12:16;;;;;;;;;4.00;4.00;;;;;20.40;40.65;102239.16;5056871;28;51099;-53
2022/03/14 08:14:43;;;;;;;;;5.25;3.25;;;;;20.38;40.40;102238.50;5056763;28;51533;-51
2022/03/14 08:17:08;;;;;;;;;5.00;3.00;;;;;20.37;40.16;102240.38;5056586;28;51108;-51
2022/03/14 08:19:34;;;;;;;;;11.25;5.00;;;;;20.35;40.24;102238.88;5056957;28;51100;-49
2022/03/14 08:22:03;;;;;;;;;6.00;5.00;;;;;20.34;39.86;102237.16;5057187;27;53472;-54
2022/03/14 08:24:28;;;;;;;;;5.00;4.00;;;;;20.34;39.85;102256.44;5056625;28;51298;-52
2022/03/14 08:26:54;;;;;;;;;4.00;3.00;;;;;20.32;39.92;102251.13;5057912;28;51192;-53
2022/03/14 08:29:20;;;;;;;;;3.00;3.00;;;;;20.32;40.05;102262.13;5071920;27;51369;-52
2022/03/14 08:31:45;;;;;;;;;5.25;5.25;;;;;20.31;39.66;102257.63;5064503;27;51908;-51
2022/03/14 08:34:11;;;;;;;;;6.75;4.75;;;;;20.31;40.01;102267.78;5056261;28;50947;-51
2022/03/14 08:36:40;;;;;;;;;7.25;4.00;;;;;20.30;39.90;102269.69;5057654;28;51158;-53
2022/03/14 08:39:07;;;;;;;;;5.50;4.50;;;;;20.29;39.95;102273.47;5056768;28;51313;-50
2022/03/14 08:41:32;;;;;;;;;7.75;5.50;;;;;20.28;39.74;102280.03;5056126;28;52055;-51
2022/03/14 08:43:57;;;;;;;;;7.00;4.00;;;;;20.29;39.74;102280.88;5056159;28;51240;-50
2022/03/14 08:46:23;;;;;;;;;4.00;4.00;;;;;20.29;39.96;102283.63;5067082;28;51036;-53
2022/03/14 08:48:49;;;;;;;;;7.00;5.00;;;;;20.27;39.67;102274.72;5057800;28;50934;-52
2022/03/14 08:51:14;;;;;;;;;5.25;4.75;;;;;20.26;40.11;102281.28;5056923;28;51021;-53
2022/03/14 08:53:39;;;;;;;;;6.25;5.75;;;;;20.26;40.03;102284.88;5056116;28;51050;-52
2022/03/14 08:56:05;;;;;;;;;7.00;3.75;;;;;20.26;40.09;102289.53;5056111;28;51150;-52
2022/03/14 08:58:31;;;;;;;;;6.00;4.75;;;;;20.26;39.74;102303.28;5057686;28;51030;-51
2022/03/14 09:00:58;;;;;;;;;5.50;4.75;;;;;20.28;40.08;102298.44;5056721;28;52953;-52
2022/03/14 09:03:24;;;;;;;;;6.75;4.75;;;;;20.29;39.76;102305.66;5055399;28;51447;-52
2022/03/14 09:05:50;;;;;;;;;6.00;4.00;;;;;20.32;40.11;102308.03;5056834;28;51067;-52
2022/03/14 09:08:17;;;;;;;;;6.00;5.75;;;;;20.34;39.87;102300.47;5056346;28;51173;-54
2022/03/14 09:10:42;;;;;;;;;8.75;6.25;;;;;20.36;40.38;102301.97;5055644;28;52726;-53
2022/03/14 09:13:07;;;;;;;;;4.25;4.00;;;;;20.39;40.20;102298.84;5055739;28;51038;-53
2022/03/14 09:15:33;;;;;;;;;3.50;3.50;;;;;20.41;39.62;102305.00;5057008;28;50993;-52
2022/03/14 09:18:00;;;;;;;;;6.75;5.25;;;;;20.44;39.61;102301.09;5056096;28;50891;-52
2022/03/14 09:20:29;;;;;;;;;7.25;5.00;;;;;20.47;39.77;102306.22;5062675;28;51616;-50
2022/03/14 09:22:56;;;;;;;;;4.25;4.00;;;;;20.51;39.69;102304.78;5076385;28;51531;-52
2022/03/14 09:25:22;;;;;;;;;3.75;3.50;;;;;20.54;39.63;102309.06;5067788;28;50981;-53
2022/03/14 09:27:48;;;;;;;;;8.75;4.25;;;;;20.62;39.33;102309.81;5055835;28;50933;-53
2022/03/14 09:30:15;;;;;;;;;6.00;5.75;;;;;20.68;38.95;102316.50;5073882;27;51802;-53
2022/03/14 09:32:41;;;;;;;;;5.75;5.25;;;;;20.75;38.92;102320.22;5075829;28;51405;-53
2022/03/14 09:35:08;;;;;;;;;7.00;5.00;;;;;20.82;38.88;102320.28;5071618;28;51217;-52
2022/03/14 09:37:36;;;;;;;;;6.00;5.00;;;;;20.87;38.63;102321.44;5055930;28;51055;-53
2022/03/14 09:40:05;;;;;;;;;6.25;5.00;;;;;20.92;37.99;102335.50;5055567;28;51047;-54
2022/03/14 09:42:35;;;;;;;;;5.25;3.75;;;;;20.99;38.29;102325.44;5055071;28;51002;-51
2022/03/14 09:45:03;;;;;;;;;9.25;4.25;;;;;21.03;37.56;102323.13;5055872;28;51172;-53
2022/03/14 09:47:29;;;;;;;;;6.50;6.50;;;;;21.08;37.58;102319.84;5069010;28;51121;-53
2022/03/14 09:49:59;;;;;;;;;5.25;4.00;;;;;21.12;37.27;102321.16;5073381;28;51216;-53
2022/03/14 09:52:26;;;;;;;;;5.25;4.50;;;;;21.15;37.65;102324.38;5063670;28;51314;-52
2022/03/14 09:54:51;;;;;;;;;4.25;4.25;;;;;21.21;37.50;102328.28;5070262;27;51143;-51
2022/03/14 09:57:18;;;;;;;;;4.25;3.25;;;;;21.23;37.55;102323.41;5066032;28;51056;-52
2022/03/14 09:59:44;;;;;;;;;7.25;5.25;;;;;21.26;37.54;102329.44;5057953;27;52079;-51
2022/03/14 10:02:12;;;;;;;;;7.25;5.00;;;;;21.30;37.27;102321.63;5058832;28;51839;-53
2022/03/14 10:04:38;;;;;;;;;4.50;4.25;;;;;21.33;37.45;102322.09;5064922;28;51147;-51
2022/03/14 10:07:06;;;;;;;;;5.75;5.00;;;;;21.36;37.05;102326.38;5058356;28;51265;-52
2022/03/14 10:09:36;;;;;;;;;8.75;5.00;;;;;21.41;37.32;102331.31;5056717;27;52627;-53
2022/03/14 10:12:04;;;;;;;;;6.75;6.25;;;;;21.44;37.33;102337.28;5057814;28;52331;-52
2022/03/14 10:14:29;;;;;;;;;3.50;3.50;;;;;21.49;37.14;102322.94;5057986;27;51190;-48
2022/03/14 10:16:56;;;;;;;;;6.50;4.25;;;;;21.52;36.99;102319.78;5058527;27;51268;-52
2022/03/14 10:19:29;;;;;;;;;1.75;1.75;;;;;21.55;36.63;102320.25;5067468;27;51207;-49
2022/03/14 10:21:55;;;;;;;;;6.25;4.75;;;;;21.58;37.09;102313.50;5063968;28;51411;-51
2022/03/14 10:24:22;;;;;;;;;6.00;5.50;;;;;21.63;37.07;102323.94;5055429;27;52136;-52
2022/03/14 10:26:48;;;;;;;;;6.50;5.50;;;;;21.66;36.71;102334.56;5060593;27;50935;-50
2022/03/14 10:29:14;;;;;;;;;6.75;4.00;;;;;21.69;37.00;102332.31;5070520;27;51938;-48
2022/03/14 10:31:42;;;;;;;;;3.50;3.00;;;;;21.72;36.99;102334.66;5065847;27;51250;-51
2022/03/14 10:34:16;;;;;;;;;4.50;4.50;;;;;21.75;36.83;102337.03;5060619;28;51162;-49
2022/03/14 10:36:47;;;;;;;;;5.25;4.25;;;;;21.78;36.96;102342.16;5056553;27;51389;-51
2022/03/14 10:39:12;;;;;;;;;7.00;3.75;;;;;21.80;36.95;102340.06;5064040;27;52139;-52
2022/03/14 10:41:39;;;;;;;;;5.00;4.00;;;;;21.83;36.62;102342.41;5059726;28;51366;-51
2022/03/14 10:44:05;;;;;;;;;3.25;1.50;;;;;21.85;36.83;102339.47;5062412;28;51220;-51
2022/03/14 10:46:30;;;;;;;;;5.50;4.00;;;;;21.86;36.25;102333.75;5063657;28;51078;-54
2022/03/14 10:48:56;;;;;;;;;3.50;3.50;;;;;21.89;36.15;102332.53;5061423;27;53463;-51
2022/03/14 10:51:22;;;;;;;;;4.00;3.00;;;;;21.90;36.17;102329.56;5059146;28;51191;-50
2022/03/14 10:53:48;;;;;;;;;4.50;3.25;;;;;21.93;36.15;102330.22;5062430;27;51254;-51
2022/03/14 10:56:15;;;;;;;;;3.75;3.25;;;;;21.95;36.35;102341.91;5063020;28;51369;-50
2022/03/14 10:58:41;;;;;;;;;9.25;5.50;;;;;21.95;36.56;102333.63;5061375;28;52127;-52
2022/03/14 11:01:13;;;;;;;;;3.75;3.50;;;;;21.97;36.63;102337.03;5073159;28;51222;-47
2022/03/14 11:03:41;;;;;;;;;4.00;3.50;;;;;21.99;36.04;102326.66;5064304;27;51283;-50
2022/03/14 11:06:14;;;;;;;;;4.25;3.00;;;;;21.98;36.77;102335.97;5069019;28;51167;-50
2022/03/14 11:08:42;;;;;;;;;4.00;3.00;;;;;21.93;36.99;102342.09;5065235;28;51324;-51
2022/03/14 11:11:09;;;;;;;;;4.50;3.25;;;;;21.88;36.69;102337.19;5071971;28;51124;-51
2022/03/14 11:13:45;;;;;;;;;3.00;3.00;;;;;21.84;37.26;102333.09;5064246;27;51127;-51
2022/03/14 11:16:12;;;;;;;;;4.00;3.00;;;;;21.81;37.51;102335.41;5072605;27;51456;-51
2022/03/14 11:18:39;;;;;;;;;7.75;3.75;;;;;21.78;37.65;102330.25;5072695;27;51046;-51